sensor_id;sensor_type;location;lat;lon;timestamp;P1;durP1;ratioP1;P2;durP2;ratioP2
50531;SDS011;36483;37.396;-122.212;2023-04-24T00:01:25;1.65;;;0.40;;
50531;SDS011;36483;37.396;-122.212;2023-04-24T00:03:51;2.60;;;0.57;;
50531;SDS011;36483;37.396;-122.212;2023-04-24T00:06:18;1.65;;;0.60;;
50531;SDS011;36483;37.396;-122.212;2023-04-24T00:08:44;1.73;;;0.70;;
50531;SDS011;36483;37.396;-122.212;2023-04-24T00:11:10;1.33;;;0.50;;
50531;SDS011;36483;37.396;-122.212;2023-04-24T00:13:37;2.50;;;0.55;;
50531;SDS011;36483;37.396;-122.212;2023-04-24T00:16:03;2.45;;;0.50;;
50531;SDS011;36483;37.396;-122.212;2023-04-24T00:18:31;1.58;;;0.70;;
50531;SDS011;36483;37.396;-122.212;2023-04-24T00:20:57;1.98;;;0.70;;
50531;SDS011;36483;37.396;-122.212;2023-04-24T00:23:23;1.73;;;0.70;;
50531;SDS011;36483;37.396;-122.212;2023-04-24T00:25:50;1.40;;;0.55;;
50531;SDS011;36483;37.396;-122.212;2023-04-24T00:28:16;1.55;;;0.63;;
50531;SDS011;36483;37.396;-122.212;2023-04-24T00:30:42;1.00;;;0.50;;
50531;SDS011;36483;37.396;-122.212;2023-04-24T00:33:08;3.22;;;0.60;;
50531;SDS011;36483;37.396;-122.212;2023-04-24T00:35:34;2.35;;;0.70;;
50531;SDS011;36483;37.396;-122.212;2023-04-24T00:38:01;1.75;;;0.63;;
50531;SDS011;36483;37.396;-122.212;2023-04-24T00:40:27;1.13;;;0.50;;
50531;SDS011;36483;37.396;-122.212;2023-04-24T00:42:54;1.27;;;0.70;;
50531;SDS011;36483;37.396;-122.212;2023-04-24T00:45:20;2.83;;;0.70;;
50531;SDS011;36483;37.396;-122.212;2023-04-24T00:47:47;2.55;;;0.90;;
50531;SDS011;36483;37.396;-122.212;2023-04-24T00:50:14;2.17;;;0.98;;
50531;SDS011;36483;37.396;-122.212;2023-04-24T00:52:41;1.50;;;0.65;;
50531;SDS011;36483;37.396;-122.212;2023-04-24T00:55:07;1.77;;;0.68;;
50531;SDS011;36483;37.396;-122.212;2023-04-24T00:57:34;1.60;;;0.52;;
50531;SDS011;36483;37.396;-122.212;2023-04-24T01:00:00;2.38;;;0.73;;
50531;SDS011;36483;37.396;-122.212;2023-04-24T01:02:28;3.65;;;0.80;;
50531;SDS011;36483;37.396;-122.212;2023-04-24T01:04:55;1.58;;;0.60;;
50531;SDS011;36483;37.396;-122.212;2023-04-24T01:07:21;2.47;;;0.80;;
50531;SDS011;36483;37.396;-122.212;2023-04-24T01:09:48;1.17;;;0.47;;
50531;SDS011;36483;37.396;-122.212;2023-04-24T01:12:16;1.95;;;0.70;;
50531;SDS011;36483;37.396;-122.212;2023-04-24T01:14:42;3.38;;;0.70;;
50531;SDS011;36483;37.396;-122.212;2023-04-24T01:17:09;2.50;;;0.63;;
50531;SDS011;36483;37.396;-122.212;2023-04-24T01:19:36;2.60;;;0.60;;
50531;SDS011;36483;37.396;-122.212;2023-04-24T01:22:02;2.75;;;0.60;;
50531;SDS011;36483;37.396;-122.212;2023-04-24T01:24:33;0.80;;;0.50;;
50531;SDS011;36483;37.396;-122.212;2023-04-24T01:27:00;1.95;;;0.50;;
50531;SDS011;36483;37.396;-122.212;2023-04-24T01:29:27;2.10;;;0.80;;
50531;SDS011;36483;37.396;-122.212;2023-04-24T01:31:54;1.85;;;0.70;;
50531;SDS011;36483;37.396;-122.212;2023-04-24T01:34:21;1.92;;;0.50;;
50531;SDS011;36483;37.396;-122.212;2023-04-24T01:37:07;3.42;;;0.90;;
50531;SDS011;36483;37.396;-122.212;2023-04-24T01:39:34;2.75;;;0.90;;
50531;SDS011;36483;37.396;-122.212;2023-04-24T01:42:00;1.75;;;0.63;;
50531;SDS011;36483;37.396;-122.212;2023-04-24T01:44:27;2.75;;;0.70;;
50531;SDS011;36483;37.396;-122.212;2023-04-24T01:46:54;4.13;;;1.13;;
50531;SDS011;36483;37.396;-122.212;2023-04-24T01:49:21;2.42;;;0.88;;
50531;SDS011;36483;37.396;-122.212;2023-04-24T01:51:50;3.22;;;0.80;;
50531;SDS011;36483;37.396;-122.212;2023-04-24T01:54:23;2.85;;;0.80;;
50531;SDS011;36483;37.396;-122.212;2023-04-24T01:56:50;3.08;;;1.00;;
50531;SDS011;36483;37.396;-122.212;2023-04-24T01:59:16;5.63;;;1.10;;
50531;SDS011;36483;37.396;-122.212;2023-04-24T02:01:43;2.13;;;0.95;;
50531;SDS011;36483;37.396;-122.212;2023-04-24T02:04:10;3.45;;;1.15;;
50531;SDS011;36483;37.396;-122.212;2023-04-24T02:06:36;3.97;;;1.40;;
50531;SDS011;36483;37.396;-122.212;2023-04-24T02:09:02;5.03;;;1.10;;
50531;SDS011;36483;37.396;-122.212;2023-04-24T02:11:29;3.92;;;1.30;;
50531;SDS011;36483;37.396;-122.212;2023-04-24T02:13:55;3.28;;;1.17;;
50531;SDS011;36483;37.396;-122.212;2023-04-24T02:16:21;4.82;;;1.35;;
50531;SDS011;36483;37.396;-122.212;2023-04-24T02:18:48;4.43;;;1.27;;
50531;SDS011;36483;37.396;-122.212;2023-04-24T02:21:14;3.60;;;1.42;;
50531;SDS011;36483;37.396;-122.212;2023-04-24T02:23:40;3.83;;;1.33;;
50531;SDS011;36483;37.396;-122.212;2023-04-24T02:26:06;5.20;;;1.17;;
50531;SDS011;36483;37.396;-122.212;2023-04-24T02:28:33;4.10;;;1.60;;
50531;SDS011;36483;37.396;-122.212;2023-04-24T02:30:59;4.00;;;1.17;;
50531;SDS011;36483;37.396;-122.212;2023-04-24T02:33:25;4.20;;;1.00;;
50531;SDS011;36483;37.396;-122.212;2023-04-24T02:35:52;5.78;;;1.52;;
50531;SDS011;36483;37.396;-122.212;2023-04-24T02:38:18;4.95;;;1.40;;
50531;SDS011;36483;37.396;-122.212;2023-04-24T02:40:44;3.63;;;1.23;;
50531;SDS011;36483;37.396;-122.212;2023-04-24T02:43:10;5.20;;;1.30;;
50531;SDS011;36483;37.396;-122.212;2023-04-24T02:45:36;6.25;;;1.33;;
50531;SDS011;36483;37.396;-122.212;2023-04-24T02:48:03;2.80;;;0.98;;
50531;SDS011;36483;37.396;-122.212;2023-04-24T02:50:30;4.40;;;1.42;;
50531;SDS011;36483;37.396;-122.212;2023-04-24T02:52:57;5.28;;;1.60;;
50531;SDS011;36483;37.396;-122.212;2023-04-24T02:55:23;4.03;;;1.33;;
50531;SDS011;36483;37.396;-122.212;2023-04-24T02:57:50;5.22;;;1.40;;
50531;SDS011;36483;37.396;-122.212;2023-04-24T03:00:16;6.38;;;1.35;;
50531;SDS011;36483;37.396;-122.212;2023-04-24T03:02:42;5.88;;;1.33;;
50531;SDS011;36483;37.396;-122.212;2023-04-24T03:05:09;4.13;;;1.30;;
50531;SDS011;36483;37.396;-122.212;2023-04-24T03:07:37;7.00;;;1.60;;
50531;SDS011;36483;37.396;-122.212;2023-04-24T03:10:04;3.45;;;1.35;;
50531;SDS011;36483;37.396;-122.212;2023-04-24T03:12:31;4.00;;;1.20;;
50531;SDS011;36483;37.396;-122.212;2023-04-24T03:14:59;3.65;;;1.10;;
50531;SDS011;36483;37.396;-122.212;2023-04-24T03:17:25;6.68;;;1.50;;
50531;SDS011;36483;37.396;-122.212;2023-04-24T03:19:51;5.75;;;1.70;;
50531;SDS011;36483;37.396;-122.212;2023-04-24T03:22:18;6.60;;;1.73;;
50531;SDS011;36483;37.396;-122.212;2023-04-24T03:24:44;6.60;;;1.60;;
50531;SDS011;36483;37.396;-122.212;2023-04-24T03:27:10;4.53;;;1.30;;
50531;SDS011;36483;37.396;-122.212;2023-04-24T03:29:36;4.68;;;1.52;;
50531;SDS011;36483;37.396;-122.212;2023-04-24T03:32:02;4.05;;;1.45;;
50531;SDS011;36483;37.396;-122.212;2023-04-24T03:34:29;7.18;;;1.88;;
50531;SDS011;36483;37.396;-122.212;2023-04-24T03:36:55;8.63;;;2.15;;
50531;SDS011;36483;37.396;-122.212;2023-04-24T03:39:21;3.85;;;1.27;;
50531;SDS011;36483;37.396;-122.212;2023-04-24T03:41:47;7.03;;;1.58;;
50531;SDS011;36483;37.396;-122.212;2023-04-24T03:44:14;7.82;;;1.60;;
50531;SDS011;36483;37.396;-122.212;2023-04-24T03:46:40;8.65;;;1.85;;
50531;SDS011;36483;37.396;-122.212;2023-04-24T03:49:06;5.95;;;1.98;;
50531;SDS011;36483;37.396;-122.212;2023-04-24T03:51:32;6.65;;;1.50;;
50531;SDS011;36483;37.396;-122.212;2023-04-24T03:53:58;6.72;;;1.65;;
50531;SDS011;36483;37.396;-122.212;2023-04-24T03:56:25;8.00;;;1.92;;
50531;SDS011;36483;37.396;-122.212;2023-04-24T03:58:51;7.80;;;1.90;;
50531;SDS011;36483;37.396;-122.212;2023-04-24T04:01:17;5.38;;;1.77;;
50531;SDS011;36483;37.396;-122.212;2023-04-24T04:03:46;8.82;;;1.80;;
50531;SDS011;36483;37.396;-122.212;2023-04-24T04:06:12;8.30;;;2.08;;
50531;SDS011;36483;37.396;-122.212;2023-04-24T04:08:38;9.73;;;2.45;;
50531;SDS011;36483;37.396;-122.212;2023-04-24T04:11:05;7.20;;;1.90;;
50531;SDS011;36483;37.396;-122.212;2023-04-24T04:13:31;7.22;;;2.30;;
50531;SDS011;36483;37.396;-122.212;2023-04-24T04:15:57;5.15;;;1.95;;
50531;SDS011;36483;37.396;-122.212;2023-04-24T04:18:23;7.00;;;1.90;;
50531;SDS011;36483;37.396;-122.212;2023-04-24T04:20:50;9.73;;;2.30;;
50531;SDS011;36483;37.396;-122.212;2023-04-24T04:23:16;10.25;;;1.95;;
50531;SDS011;36483;37.396;-122.212;2023-04-24T04:25:42;8.57;;;2.00;;
50531;SDS011;36483;37.396;-122.212;2023-04-24T04:28:08;7.20;;;1.83;;
50531;SDS011;36483;37.396;-122.212;2023-04-24T04:30:35;6.97;;;2.05;;
50531;SDS011;36483;37.396;-122.212;2023-04-24T04:33:03;9.90;;;2.50;;
50531;SDS011;36483;37.396;-122.212;2023-04-24T04:35:29;8.80;;;2.30;;
50531;SDS011;36483;37.396;-122.212;2023-04-24T04:37:55;9.80;;;2.28;;
50531;SDS011;36483;37.396;-122.212;2023-04-24T04:40:24;7.22;;;2.30;;
50531;SDS011;36483;37.396;-122.212;2023-04-24T04:42:50;8.23;;;2.05;;
50531;SDS011;36483;37.396;-122.212;2023-04-24T04:45:18;10.13;;;2.40;;
50531;SDS011;36483;37.396;-122.212;2023-04-24T04:47:46;9.57;;;2.33;;
50531;SDS011;36483;37.396;-122.212;2023-04-24T04:50:12;8.27;;;2.05;;
50531;SDS011;36483;37.396;-122.212;2023-04-24T04:52:38;8.27;;;2.28;;
50531;SDS011;36483;37.396;-122.212;2023-04-24T04:55:05;7.53;;;2.22;;
50531;SDS011;36483;37.396;-122.212;2023-04-24T04:57:32;8.35;;;2.10;;
50531;SDS011;36483;37.396;-122.212;2023-04-24T04:59:59;8.80;;;2.40;;
50531;SDS011;36483;37.396;-122.212;2023-04-24T05:02:25;10.43;;;2.53;;
50531;SDS011;36483;37.396;-122.212;2023-04-24T05:04:51;13.50;;;3.00;;
50531;SDS011;36483;37.396;-122.212;2023-04-24T05:07:17;7.45;;;2.30;;
50531;SDS011;36483;37.396;-122.212;2023-04-24T05:09:44;11.20;;;2.97;;
50531;SDS011;36483;37.396;-122.212;2023-04-24T05:12:10;8.82;;;2.45;;
50531;SDS011;36483;37.396;-122.212;2023-04-24T05:14:36;11.18;;;2.67;;
50531;SDS011;36483;37.396;-122.212;2023-04-24T05:17:02;13.05;;;3.38;;
50531;SDS011;36483;37.396;-122.212;2023-04-24T05:19:29;11.13;;;3.53;;
50531;SDS011;36483;37.396;-122.212;2023-04-24T05:21:58;11.43;;;2.97;;
50531;SDS011;36483;37.396;-122.212;2023-04-24T05:24:24;10.18;;;2.67;;
50531;SDS011;36483;37.396;-122.212;2023-04-24T05:26:53;9.20;;;2.92;;
50531;SDS011;36483;37.396;-122.212;2023-04-24T05:29:20;11.60;;;2.65;;
50531;SDS011;36483;37.396;-122.212;2023-04-24T05:31:47;12.68;;;3.10;;
50531;SDS011;36483;37.396;-122.212;2023-04-24T05:34:13;12.35;;;2.80;;
50531;SDS011;36483;37.396;-122.212;2023-04-24T05:36:41;9.15;;;2.60;;
50531;SDS011;36483;37.396;-122.212;2023-04-24T05:39:08;9.85;;;2.67;;
50531;SDS011;36483;37.396;-122.212;2023-04-24T05:41:37;12.82;;;3.08;;
50531;SDS011;36483;37.396;-122.212;2023-04-24T05:44:03;12.80;;;3.10;;
50531;SDS011;36483;37.396;-122.212;2023-04-24T05:46:29;13.27;;;3.80;;
50531;SDS011;36483;37.396;-122.212;2023-04-24T05:48:56;12.70;;;3.40;;
50531;SDS011;36483;37.396;-122.212;2023-04-24T05:51:22;11.88;;;3.22;;
50531;SDS011;36483;37.396;-122.212;2023-04-24T05:53:49;13.25;;;3.25;;
50531;SDS011;36483;37.396;-122.212;2023-04-24T05:56:15;13.95;;;3.30;;
50531;SDS011;36483;37.396;-122.212;2023-04-24T05:58:41;14.40;;;3.88;;
50531;SDS011;36483;37.396;-122.212;2023-04-24T06:01:08;14.70;;;3.47;;
50531;SDS011;36483;37.396;-122.212;2023-04-24T06:03:34;18.30;;;4.00;;
50531;SDS011;36483;37.396;-122.212;2023-04-24T06:06:01;17.50;;;4.18;;
50531;SDS011;36483;37.396;-122.212;2023-04-24T06:08:27;12.05;;;3.88;;
50531;SDS011;36483;37.396;-122.212;2023-04-24T06:10:53;24.42;;;4.20;;
50531;SDS011;36483;37.396;-122.212;2023-04-24T06:13:19;13.85;;;4.00;;
50531;SDS011;36483;37.396;-122.212;2023-04-24T06:15:46;17.45;;;3.78;;
50531;SDS011;36483;37.396;-122.212;2023-04-24T06:18:12;18.00;;;4.25;;
50531;SDS011;36483;37.396;-122.212;2023-04-24T06:20:38;15.65;;;3.78;;
50531;SDS011;36483;37.396;-122.212;2023-04-24T06:23:05;19.83;;;4.47;;
50531;SDS011;36483;37.396;-122.212;2023-04-24T06:25:31;20.17;;;4.30;;
50531;SDS011;36483;37.396;-122.212;2023-04-24T06:27:57;13.23;;;3.80;;
50531;SDS011;36483;37.396;-122.212;2023-04-24T06:30:24;21.65;;;4.10;;
50531;SDS011;36483;37.396;-122.212;2023-04-24T06:32:50;17.48;;;3.65;;
50531;SDS011;36483;37.396;-122.212;2023-04-24T06:35:16;19.45;;;4.20;;
50531;SDS011;36483;37.396;-122.212;2023-04-24T06:37:43;17.08;;;4.07;;
50531;SDS011;36483;37.396;-122.212;2023-04-24T06:40:09;17.63;;;4.40;;
50531;SDS011;36483;37.396;-122.212;2023-04-24T06:42:36;16.35;;;4.10;;
50531;SDS011;36483;37.396;-122.212;2023-04-24T06:45:02;14.23;;;4.20;;
50531;SDS011;36483;37.396;-122.212;2023-04-24T06:47:30;13.90;;;3.72;;
50531;SDS011;36483;37.396;-122.212;2023-04-24T06:49:56;16.65;;;3.78;;
50531;SDS011;36483;37.396;-122.212;2023-04-24T06:52:23;14.60;;;3.80;;
50531;SDS011;36483;37.396;-122.212;2023-04-24T06:54:49;13.80;;;4.07;;
50531;SDS011;36483;37.396;-122.212;2023-04-24T06:57:15;13.63;;;3.80;;
50531;SDS011;36483;37.396;-122.212;2023-04-24T06:59:42;19.20;;;3.95;;
50531;SDS011;36483;37.396;-122.212;2023-04-24T07:02:08;15.65;;;3.88;;
50531;SDS011;36483;37.396;-122.212;2023-04-24T07:04:34;19.73;;;4.20;;
50531;SDS011;36483;37.396;-122.212;2023-04-24T07:07:00;15.15;;;4.00;;
50531;SDS011;36483;37.396;-122.212;2023-04-24T07:09:28;18.50;;;4.53;;
50531;SDS011;36483;37.396;-122.212;2023-04-24T07:11:54;14.57;;;3.63;;
50531;SDS011;36483;37.396;-122.212;2023-04-24T07:14:21;19.27;;;4.15;;
50531;SDS011;36483;37.396;-122.212;2023-04-24T07:16:48;13.32;;;3.50;;
50531;SDS011;36483;37.396;-122.212;2023-04-24T07:19:14;15.52;;;3.50;;
50531;SDS011;36483;37.396;-122.212;2023-04-24T07:21:40;12.40;;;3.30;;
50531;SDS011;36483;37.396;-122.212;2023-04-24T07:24:07;12.00;;;3.50;;
50531;SDS011;36483;37.396;-122.212;2023-04-24T07:26:36;17.92;;;3.42;;
50531;SDS011;36483;37.396;-122.212;2023-04-24T07:29:04;15.25;;;3.47;;
50531;SDS011;36483;37.396;-122.212;2023-04-24T07:31:30;14.48;;;3.25;;
50531;SDS011;36483;37.396;-122.212;2023-04-24T07:33:56;14.50;;;3.40;;
50531;SDS011;36483;37.396;-122.212;2023-04-24T07:36:23;13.90;;;3.42;;
50531;SDS011;36483;37.396;-122.212;2023-04-24T07:38:51;13.38;;;3.28;;
50531;SDS011;36483;37.396;-122.212;2023-04-24T07:41:18;13.63;;;3.15;;
50531;SDS011;36483;37.396;-122.212;2023-04-24T07:43:44;16.60;;;4.13;;
50531;SDS011;36483;37.396;-122.212;2023-04-24T07:46:11;11.30;;;3.42;;
50531;SDS011;36483;37.396;-122.212;2023-04-24T07:48:37;11.52;;;3.20;;
50531;SDS011;36483;37.396;-122.212;2023-04-24T07:51:03;10.90;;;2.90;;
50531;SDS011;36483;37.396;-122.212;2023-04-24T07:53:29;9.60;;;2.88;;
50531;SDS011;36483;37.396;-122.212;2023-04-24T07:55:56;11.15;;;3.15;;
50531;SDS011;36483;37.396;-122.212;2023-04-24T07:58:22;10.88;;;3.38;;
50531;SDS011;36483;37.396;-122.212;2023-04-24T08:00:49;13.75;;;2.85;;
50531;SDS011;36483;37.396;-122.212;2023-04-24T08:03:15;10.50;;;2.92;;
50531;SDS011;36483;37.396;-122.212;2023-04-24T08:05:44;17.38;;;3.35;;
50531;SDS011;36483;37.396;-122.212;2023-04-24T08:08:10;11.30;;;3.08;;
50531;SDS011;36483;37.396;-122.212;2023-04-24T08:10:37;9.50;;;2.67;;
50531;SDS011;36483;37.396;-122.212;2023-04-24T08:13:03;12.45;;;2.80;;
50531;SDS011;36483;37.396;-122.212;2023-04-24T08:15:29;9.85;;;3.38;;
50531;SDS011;36483;37.396;-122.212;2023-04-24T08:17:56;10.48;;;2.70;;
50531;SDS011;36483;37.396;-122.212;2023-04-24T08:20:23;13.65;;;2.85;;
50531;SDS011;36483;37.396;-122.212;2023-04-24T08:22:49;11.57;;;2.50;;
50531;SDS011;36483;37.396;-122.212;2023-04-24T08:25:15;13.75;;;3.15;;
50531;SDS011;36483;37.396;-122.212;2023-04-24T08:27:42;12.23;;;3.10;;
50531;SDS011;36483;37.396;-122.212;2023-04-24T08:30:08;11.80;;;2.88;;
50531;SDS011;36483;37.396;-122.212;2023-04-24T08:32:35;15.27;;;2.72;;
50531;SDS011;36483;37.396;-122.212;2023-04-24T08:35:02;13.52;;;2.65;;
50531;SDS011;36483;37.396;-122.212;2023-04-24T08:37:29;8.77;;;2.50;;
50531;SDS011;36483;37.396;-122.212;2023-04-24T08:39:55;13.82;;;2.45;;
50531;SDS011;36483;37.396;-122.212;2023-04-24T08:42:21;7.88;;;2.40;;
50531;SDS011;36483;37.396;-122.212;2023-04-24T08:44:48;10.02;;;2.33;;
50531;SDS011;36483;37.396;-122.212;2023-04-24T08:47:15;6.47;;;2.40;;
50531;SDS011;36483;37.396;-122.212;2023-04-24T08:49:42;10.88;;;2.15;;
50531;SDS011;36483;37.396;-122.212;2023-04-24T08:52:09;7.80;;;2.40;;
50531;SDS011;36483;37.396;-122.212;2023-04-24T08:54:38;7.00;;;2.15;;
50531;SDS011;36483;37.396;-122.212;2023-04-24T08:57:05;10.10;;;2.03;;
50531;SDS011;36483;37.396;-122.212;2023-04-24T08:59:33;8.30;;;2.40;;
50531;SDS011;36483;37.396;-122.212;2023-04-24T09:01:59;10.95;;;2.33;;
50531;SDS011;36483;37.396;-122.212;2023-04-24T09:04:26;8.98;;;2.30;;
50531;SDS011;36483;37.396;-122.212;2023-04-24T09:06:55;8.52;;;2.28;;
50531;SDS011;36483;37.396;-122.212;2023-04-24T09:09:22;8.25;;;2.17;;
50531;SDS011;36483;37.396;-122.212;2023-04-24T09:11:52;11.65;;;2.42;;
50531;SDS011;36483;37.396;-122.212;2023-04-24T09:14:22;8.07;;;2.28;;
50531;SDS011;36483;37.396;-122.212;2023-04-24T09:16:49;8.25;;;2.08;;
50531;SDS011;36483;37.396;-122.212;2023-04-24T09:19:15;9.57;;;2.33;;
50531;SDS011;36483;37.396;-122.212;2023-04-24T09:21:41;7.18;;;2.20;;
50531;SDS011;36483;37.396;-122.212;2023-04-24T09:24:15;7.55;;;1.90;;
50531;SDS011;36483;37.396;-122.212;2023-04-24T09:26:43;9.93;;;2.47;;
50531;SDS011;36483;37.396;-122.212;2023-04-24T09:29:14;8.57;;;2.72;;
50531;SDS011;36483;37.396;-122.212;2023-04-24T09:31:41;8.05;;;2.15;;
50531;SDS011;36483;37.396;-122.212;2023-04-24T09:34:07;9.23;;;2.15;;
50531;SDS011;36483;37.396;-122.212;2023-04-24T09:36:40;7.45;;;2.30;;
50531;SDS011;36483;37.396;-122.212;2023-04-24T09:39:08;9.48;;;2.05;;
50531;SDS011;36483;37.396;-122.212;2023-04-24T09:41:44;5.90;;;2.05;;
50531;SDS011;36483;37.396;-122.212;2023-04-24T09:44:15;10.27;;;2.38;;
50531;SDS011;36483;37.396;-122.212;2023-04-24T09:46:43;7.60;;;2.20;;
50531;SDS011;36483;37.396;-122.212;2023-04-24T09:49:12;8.00;;;2.40;;
50531;SDS011;36483;37.396;-122.212;2023-04-24T09:51:41;6.20;;;2.33;;
50531;SDS011;36483;37.396;-122.212;2023-04-24T09:54:17;5.80;;;2.20;;
50531;SDS011;36483;37.396;-122.212;2023-04-24T09:56:49;6.93;;;2.45;;
50531;SDS011;36483;37.396;-122.212;2023-04-24T09:59:19;6.80;;;2.25;;
50531;SDS011;36483;37.396;-122.212;2023-04-24T10:01:45;7.32;;;2.15;;
50531;SDS011;36483;37.396;-122.212;2023-04-24T10:04:17;8.63;;;2.28;;
50531;SDS011;36483;37.396;-122.212;2023-04-24T10:06:49;6.63;;;2.13;;
50531;SDS011;36483;37.396;-122.212;2023-04-24T10:09:20;10.18;;;2.70;;
50531;SDS011;36483;37.396;-122.212;2023-04-24T10:14:20;8.43;;;2.15;;
50531;SDS011;36483;37.396;-122.212;2023-04-24T10:16:49;10.57;;;2.75;;
50531;SDS011;36483;37.396;-122.212;2023-04-24T10:19:17;11.50;;;2.45;;
50531;SDS011;36483;37.396;-122.212;2023-04-24T10:21:44;7.13;;;1.98;;
50531;SDS011;36483;37.396;-122.212;2023-04-24T10:24:14;7.47;;;1.92;;
50531;SDS011;36483;37.396;-122.212;2023-04-24T10:26:46;8.60;;;2.30;;
50531;SDS011;36483;37.396;-122.212;2023-04-24T10:29:17;8.55;;;2.30;;
50531;SDS011;36483;37.396;-122.212;2023-04-24T10:31:44;8.18;;;2.33;;
50531;SDS011;36483;37.396;-122.212;2023-04-24T10:34:14;9.55;;;2.50;;
50531;SDS011;36483;37.396;-122.212;2023-04-24T10:36:44;10.10;;;2.50;;
50531;SDS011;36483;37.396;-122.212;2023-04-24T10:41:40;8.18;;;2.63;;
50531;SDS011;36483;37.396;-122.212;2023-04-24T10:44:09;7.57;;;2.58;;
50531;SDS011;36483;37.396;-122.212;2023-04-24T10:46:37;7.53;;;2.38;;
50531;SDS011;36483;37.396;-122.212;2023-04-24T10:49:05;9.00;;;2.92;;
50531;SDS011;36483;37.396;-122.212;2023-04-24T10:51:44;9.60;;;2.35;;
50531;SDS011;36483;37.396;-122.212;2023-04-24T10:54:22;7.68;;;2.33;;
50531;SDS011;36483;37.396;-122.212;2023-04-24T10:56:52;8.68;;;2.20;;
50531;SDS011;36483;37.396;-122.212;2023-04-24T10:59:25;7.45;;;2.28;;
50531;SDS011;36483;37.396;-122.212;2023-04-24T11:01:53;7.95;;;2.65;;
50531;SDS011;36483;37.396;-122.212;2023-04-24T11:04:30;8.13;;;2.33;;
50531;SDS011;36483;37.396;-122.212;2023-04-24T11:06:57;9.05;;;2.33;;
50531;SDS011;36483;37.396;-122.212;2023-04-24T11:09:26;6.57;;;2.38;;
50531;SDS011;36483;37.396;-122.212;2023-04-24T11:12:03;8.02;;;2.20;;
50531;SDS011;36483;37.396;-122.212;2023-04-24T11:17:33;6.72;;;2.10;;
50531;SDS011;36483;37.396;-122.212;2023-04-24T11:22:33;6.88;;;2.00;;
50531;SDS011;36483;37.396;-122.212;2023-04-24T11:25:01;9.98;;;2.50;;
50531;SDS011;36483;37.396;-122.212;2023-04-24T11:27:32;9.32;;;2.30;;
50531;SDS011;36483;37.396;-122.212;2023-04-24T11:30:08;6.68;;;2.10;;
50531;SDS011;36483;37.396;-122.212;2023-04-24T11:32:36;8.98;;;2.50;;
50531;SDS011;36483;37.396;-122.212;2023-04-24T11:35:05;6.72;;;2.30;;
50531;SDS011;36483;37.396;-122.212;2023-04-24T11:37:38;8.73;;;3.00;;
50531;SDS011;36483;37.396;-122.212;2023-04-24T11:40:06;7.50;;;2.20;;
50531;SDS011;36483;37.396;-122.212;2023-04-24T11:42:35;4.85;;;1.90;;
50531;SDS011;36483;37.396;-122.212;2023-04-24T11:45:06;6.53;;;2.40;;
50531;SDS011;36483;37.396;-122.212;2023-04-24T11:47:34;8.30;;;2.15;;
50531;SDS011;36483;37.396;-122.212;2023-04-24T11:50:00;7.05;;;2.13;;
50531;SDS011;36483;37.396;-122.212;2023-04-24T11:52:27;8.45;;;2.30;;
50531;SDS011;36483;37.396;-122.212;2023-04-24T11:54:54;7.47;;;2.45;;
50531;SDS011;36483;37.396;-122.212;2023-04-24T11:57:20;6.75;;;2.45;;
50531;SDS011;36483;37.396;-122.212;2023-04-24T11:59:48;8.85;;;2.67;;
50531;SDS011;36483;37.396;-122.212;2023-04-24T12:02:21;12.20;;;2.63;;
50531;SDS011;36483;37.396;-122.212;2023-04-24T12:04:47;7.47;;;2.65;;
50531;SDS011;36483;37.396;-122.212;2023-04-24T12:07:14;7.07;;;2.22;;
50531;SDS011;36483;37.396;-122.212;2023-04-24T12:10:01;8.68;;;2.25;;
50531;SDS011;36483;37.396;-122.212;2023-04-24T12:12:27;10.55;;;2.80;;
50531;SDS011;36483;37.396;-122.212;2023-04-24T12:14:57;9.52;;;2.65;;
50531;SDS011;36483;37.396;-122.212;2023-04-24T12:17:28;9.18;;;2.50;;
50531;SDS011;36483;37.396;-122.212;2023-04-24T12:20:03;9.27;;;2.60;;
50531;SDS011;36483;37.396;-122.212;2023-04-24T12:25:17;9.85;;;2.50;;
50531;SDS011;36483;37.396;-122.212;2023-04-24T12:27:44;7.35;;;2.35;;
50531;SDS011;36483;37.396;-122.212;2023-04-24T12:30:15;7.28;;;2.00;;
50531;SDS011;36483;37.396;-122.212;2023-04-24T12:32:42;7.60;;;2.20;;
50531;SDS011;36483;37.396;-122.212;2023-04-24T12:35:09;7.05;;;2.35;;
50531;SDS011;36483;37.396;-122.212;2023-04-24T12:37:36;8.73;;;2.33;;
50531;SDS011;36483;37.396;-122.212;2023-04-24T12:40:09;6.38;;;2.75;;
50531;SDS011;36483;37.396;-122.212;2023-04-24T12:42:41;8.48;;;2.35;;
50531;SDS011;36483;37.396;-122.212;2023-04-24T12:45:09;9.23;;;2.50;;
50531;SDS011;36483;37.396;-122.212;2023-04-24T12:47:37;10.50;;;2.85;;
50531;SDS011;36483;37.396;-122.212;2023-04-24T12:50:05;8.77;;;2.40;;
50531;SDS011;36483;37.396;-122.212;2023-04-24T12:52:36;7.47;;;2.33;;
50531;SDS011;36483;37.396;-122.212;2023-04-24T12:55:02;6.25;;;2.22;;
50531;SDS011;36483;37.396;-122.212;2023-04-24T12:57:30;6.03;;;1.90;;
50531;SDS011;36483;37.396;-122.212;2023-04-24T12:59:57;8.10;;;2.53;;
50531;SDS011;36483;37.396;-122.212;2023-04-24T13:02:24;8.85;;;2.55;;
50531;SDS011;36483;37.396;-122.212;2023-04-24T13:04:52;7.45;;;2.47;;
50531;SDS011;36483;37.396;-122.212;2023-04-24T13:07:19;9.63;;;2.28;;
50531;SDS011;36483;37.396;-122.212;2023-04-24T13:09:47;6.10;;;2.20;;
50531;SDS011;36483;37.396;-122.212;2023-04-24T13:12:14;9.75;;;2.50;;
50531;SDS011;36483;37.396;-122.212;2023-04-24T13:14:40;11.07;;;2.58;;
50531;SDS011;36483;37.396;-122.212;2023-04-24T13:17:07;6.10;;;2.17;;
50531;SDS011;36483;37.396;-122.212;2023-04-24T13:19:37;12.73;;;2.63;;
50531;SDS011;36483;37.396;-122.212;2023-04-24T13:22:06;10.05;;;3.35;;
50531;SDS011;36483;37.396;-122.212;2023-04-24T13:24:34;8.48;;;2.15;;
50531;SDS011;36483;37.396;-122.212;2023-04-24T13:27:00;7.38;;;2.45;;
50531;SDS011;36483;37.396;-122.212;2023-04-24T13:29:27;5.78;;;2.45;;
50531;SDS011;36483;37.396;-122.212;2023-04-24T13:31:54;10.63;;;2.33;;
50531;SDS011;36483;37.396;-122.212;2023-04-24T13:34:21;9.77;;;2.67;;
50531;SDS011;36483;37.396;-122.212;2023-04-24T13:36:47;7.80;;;2.67;;
50531;SDS011;36483;37.396;-122.212;2023-04-24T13:39:15;7.20;;;2.05;;
50531;SDS011;36483;37.396;-122.212;2023-04-24T13:41:41;9.70;;;2.63;;
50531;SDS011;36483;37.396;-122.212;2023-04-24T13:44:08;10.27;;;2.45;;
50531;SDS011;36483;37.396;-122.212;2023-04-24T13:46:34;11.40;;;2.60;;
50531;SDS011;36483;37.396;-122.212;2023-04-24T13:49:01;6.53;;;2.28;;
50531;SDS011;36483;37.396;-122.212;2023-04-24T13:51:28;9.27;;;2.25;;
50531;SDS011;36483;37.396;-122.212;2023-04-24T13:53:55;10.18;;;2.50;;
50531;SDS011;36483;37.396;-122.212;2023-04-24T13:56:22;8.07;;;2.25;;
50531;SDS011;36483;37.396;-122.212;2023-04-24T13:58:48;7.05;;;2.63;;
50531;SDS011;36483;37.396;-122.212;2023-04-24T14:01:15;11.52;;;2.50;;
50531;SDS011;36483;37.396;-122.212;2023-04-24T14:03:41;8.07;;;2.88;;
50531;SDS011;36483;37.396;-122.212;2023-04-24T14:06:08;8.10;;;2.38;;
50531;SDS011;36483;37.396;-122.212;2023-04-24T14:08:35;7.72;;;2.40;;
50531;SDS011;36483;37.396;-122.212;2023-04-24T14:11:01;9.70;;;2.42;;
50531;SDS011;36483;37.396;-122.212;2023-04-24T14:13:28;12.85;;;2.85;;
50531;SDS011;36483;37.396;-122.212;2023-04-24T14:15:54;7.53;;;2.42;;
50531;SDS011;36483;37.396;-122.212;2023-04-24T14:18:21;6.68;;;2.42;;
50531;SDS011;36483;37.396;-122.212;2023-04-24T14:20:47;7.70;;;2.75;;